BAW6 KJFK-EGLL
Flight info
| Callsign | BAW6 |
|---|---|
| Flight time | N/A |
| Altitude | 51000 |
| Route | BETTE DCT ACK DCT BRADD N261B NICSO/M080F380 DCT 48N050W 50N040W 52N030W 53N020W DCT MALOT DCT GISTI/N0456F370 DCT ENJEX DCT AVZAC DCT INFEC DCT JETZI DCT AMFUL DCT ORZEB/N0448F230 P2 SIRIC |
| Aircraft | CONC/H-SDE2E3FGHIRYW/X |
Departure
| Time | 2026-05-04 14:01 |
|---|---|
| Airport | John F. Kennedy International Airport (KJFK) |
Arrival
| Time | N/A |
|---|---|
| Airport | London Heathrow Airport (EGLL) |
| Time | Latitude | Longitude | Altitude | Speed | Heading |
|---|---|---|---|---|---|
| 2026-05-04 13:32 | 40.64153 | -73.78366 | 22 ft | 0 kts | 61° |
| 2026-05-04 13:40 | 40.64143 | -73.78383 | 24 ft | 3 kts | 68° |
| 2026-05-04 13:40 | 40.64131 | -73.78407 | 23 ft | 3 kts | 85° |
| 2026-05-04 13:41 | 40.64122 | -73.78431 | 25 ft | 4 kts | 111° |
| 2026-05-04 13:41 | 40.64118 | -73.78455 | 24 ft | 4 kts | 144° |
| 2026-05-04 13:41 | 40.64122 | -73.78463 | 24 ft | 1 kts | 151° |
| 2026-05-04 13:44 | 40.64115 | -73.78457 | 23 ft | 4 kts | 151° |
| 2026-05-04 13:44 | 40.64071 | -73.78426 | 24 ft | 10 kts | 151° |
| 2026-05-04 13:44 | 40.63990 | -73.78368 | 22 ft | 16 kts | 151° |
| 2026-05-04 13:45 | 40.63871 | -73.78295 | 22 ft | 21 kts | 166° |
| 2026-05-04 13:45 | 40.63709 | -73.78269 | 22 ft | 26 kts | 175° |
| 2026-05-04 13:45 | 40.63589 | -73.78258 | 22 ft | 8 kts | 184° |
| 2026-05-04 13:45 | 40.63585 | -73.78259 | 22 ft | 0 kts | 186° |
| 2026-05-04 13:48 | 40.63564 | -73.78262 | 23 ft | 6 kts | 189° |
| 2026-05-04 13:49 | 40.63513 | -73.78252 | 23 ft | 9 kts | 150° |
| 2026-05-04 13:49 | 40.63466 | -73.78168 | 23 ft | 14 kts | 121° |
| 2026-05-04 13:49 | 40.63407 | -73.78035 | 23 ft | 20 kts | 117° |
| 2026-05-04 13:49 | 40.63415 | -73.77906 | 23 ft | 14 kts | 50° |
| 2026-05-04 13:50 | 40.63511 | -73.77822 | 23 ft | 19 kts | 28° |
| 2026-05-04 13:50 | 40.63642 | -73.77722 | 22 ft | 25 kts | 30° |
| 2026-05-04 13:50 | 40.63805 | -73.77596 | 24 ft | 30 kts | 30° |
| 2026-05-04 13:50 | 40.63965 | -73.77470 | 24 ft | 17 kts | 31° |
| 2026-05-04 13:51 | 40.63986 | -73.77453 | 22 ft | 0 kts | 31° |
| 2026-05-04 13:51 | 40.63994 | -73.77446 | 24 ft | 3 kts | 31° |
| 2026-05-04 13:51 | 40.64031 | -73.77417 | 22 ft | 6 kts | 31° |
| 2026-05-04 13:51 | 40.64059 | -73.77394 | 22 ft | 3 kts | 31° |
| 2026-05-04 13:52 | 40.64102 | -73.77360 | 22 ft | 10 kts | 31° |
| 2026-05-04 13:52 | 40.64174 | -73.77303 | 23 ft | 14 kts | 31° |
| 2026-05-04 13:52 | 40.64272 | -73.77226 | 22 ft | 18 kts | 30° |
| 2026-05-04 13:53 | 40.64367 | -73.77152 | 22 ft | 11 kts | 29° |
| 2026-05-04 13:53 | 40.64374 | -73.77146 | 22 ft | 0 kts | 30° |
| 2026-05-04 13:53 | 40.64425 | -73.77112 | 24 ft | 16 kts | 23° |
| 2026-05-04 13:54 | 40.64650 | -73.77115 | 22 ft | 13 kts | 343° |
| 2026-05-04 13:54 | 40.64673 | -73.77125 | 22 ft | 0 kts | 343° |
| 2026-05-04 13:55 | 40.64696 | -73.77146 | 22 ft | 10 kts | 322° |
| 2026-05-04 13:55 | 40.64789 | -73.77141 | 24 ft | 15 kts | 46° |
| 2026-05-04 13:55 | 40.64862 | -73.77023 | 26 ft | 18 kts | 55° |
| 2026-05-04 13:56 | 40.64897 | -73.76948 | 28 ft | 1 kts | 58° |
| 2026-05-04 13:56 | 40.64901 | -73.76940 | 26 ft | 4 kts | 58° |
| 2026-05-04 13:57 | 40.64920 | -73.76899 | 26 ft | 7 kts | 57° |
| 2026-05-04 13:57 | 40.64952 | -73.76838 | 25 ft | 8 kts | 53° |
| 2026-05-04 13:58 | 40.64973 | -73.76700 | 22 ft | 0 kts | 120° |
| 2026-05-04 13:58 | 40.64972 | -73.76699 | 22 ft | 2 kts | 120° |
| 2026-05-04 13:59 | 40.64969 | -73.76641 | 22 ft | 8 kts | 79° |
| 2026-05-04 13:59 | 40.64998 | -73.76606 | 24 ft | 7 kts | 36° |
| 2026-05-04 13:59 | 40.65093 | -73.76488 | 23 ft | 9 kts | 81° |
| 2026-05-04 14:00 | 40.65075 | -73.76424 | 24 ft | 10 kts | 114° |
| 2026-05-04 14:00 | 40.64800 | -73.76530 | 22 ft | 58 kts | 212° |
| 2026-05-04 14:00 | 40.64055 | -73.77113 | 26 ft | 189 kts | 210° |
| 2026-05-04 14:01 | 40.62689 | -73.78207 | 125 ft | 262 kts | 213° |
| 2026-05-04 14:01 | 40.61059 | -73.79691 | 1905 ft | 312 kts | 216° |
| 2026-05-04 14:01 | 40.57017 | -73.83378 | 6237 ft | 405 kts | 215° |
| 2026-05-04 14:02 | 40.54148 | -73.85016 | 6120 ft | 499 kts | 190° |
| 2026-05-04 14:02 | 40.50630 | -73.84848 | 6938 ft | 515 kts | 169° |
| 2026-05-04 14:02 | 40.47258 | -73.83014 | 7574 ft | 536 kts | 150° |
| 2026-05-04 14:02 | 40.44419 | -73.79799 | 7872 ft | 546 kts | 132° |
| 2026-05-04 14:03 | 40.42570 | -73.75767 | 7971 ft | 479 kts | 112° |
| 2026-05-04 14:03 | 40.42058 | -73.71773 | 8311 ft | 412 kts | 86° |
| 2026-05-04 14:03 | 40.42759 | -73.68455 | 9137 ft | 347 kts | 57° |
| 2026-05-04 14:03 | 40.44102 | -73.66164 | 9947 ft | 303 kts | 45° |
| 2026-05-04 14:04 | 40.47076 | -73.62020 | 11477 ft | 335 kts | 44° |
| 2026-05-04 14:04 | 40.48729 | -73.59683 | 12262 ft | 349 kts | 45° |
| 2026-05-04 14:04 | 40.50324 | -73.57288 | 13077 ft | 349 kts | 47° |
| 2026-05-04 14:05 | 40.53386 | -73.52200 | 14651 ft | 358 kts | 51° |
| 2026-05-04 14:05 | 40.54710 | -73.49431 | 15397 ft | 368 kts | 70° |
| 2026-05-04 14:05 | 40.55116 | -73.46094 | 16287 ft | 375 kts | 92° |
| 2026-05-04 14:06 | 40.54967 | -73.42617 | 17127 ft | 384 kts | 95° |
| 2026-05-04 14:06 | 40.54755 | -73.39067 | 17968 ft | 390 kts | 94° |
| 2026-05-04 14:06 | 40.54576 | -73.35522 | 18727 ft | 395 kts | 92° |
| 2026-05-04 14:06 | 40.54560 | -73.31884 | 19472 ft | 399 kts | 86° |
| 2026-05-04 14:07 | 40.54723 | -73.28228 | 20226 ft | 403 kts | 85° |
| 2026-05-04 14:07 | 40.54894 | -73.24520 | 21013 ft | 408 kts | 85° |
| 2026-05-04 14:07 | 40.54998 | -73.22042 | 21520 ft | 410 kts | 85° |
| 2026-05-04 14:07 | 40.55159 | -73.18270 | 22334 ft | 413 kts | 85° |
| 2026-05-04 14:08 | 40.55329 | -73.14470 | 23171 ft | 417 kts | 85° |
| 2026-05-04 14:08 | 40.55505 | -73.10615 | 23954 ft | 422 kts | 85° |
| 2026-05-04 14:08 | 40.55677 | -73.06795 | 24686 ft | 427 kts | 85° |
| 2026-05-04 14:08 | 40.55878 | -73.02849 | 25397 ft | 433 kts | 81° |
| 2026-05-04 14:09 | 40.57491 | -72.95050 | 25913 ft | 447 kts | 70° |
| 2026-05-04 14:09 | 40.58464 | -72.91202 | 25985 ft | 448 kts | 69° |
| 2026-05-04 14:10 | 40.60483 | -72.83401 | 26019 ft | 457 kts | 69° |
| 2026-05-04 14:10 | 40.61547 | -72.79269 | 26564 ft | 492 kts | 69° |
| 2026-05-04 14:10 | 40.62678 | -72.74839 | 27415 ft | 527 kts | 70° |
| 2026-05-04 14:10 | 40.63859 | -72.70191 | 28260 ft | 559 kts | 70° |
| 2026-05-04 14:11 | 40.65130 | -72.65181 | 29135 ft | 590 kts | 70° |
| 2026-05-04 14:11 | 40.67837 | -72.54492 | 30739 ft | 626 kts | 70° |
| 2026-05-04 14:11 | 40.69221 | -72.49013 | 31498 ft | 634 kts | 70° |
| 2026-05-04 14:12 | 40.70608 | -72.43514 | 32292 ft | 644 kts | 70° |
| 2026-05-04 14:12 | 40.72033 | -72.37844 | 33130 ft | 655 kts | 71° |
| 2026-05-04 14:12 | 40.74947 | -72.26208 | 34697 ft | 675 kts | 71° |
| 2026-05-04 14:13 | 40.76404 | -72.20368 | 35409 ft | 682 kts | 71° |
| 2026-05-04 14:13 | 40.77900 | -72.14356 | 36154 ft | 691 kts | 71° |
| 2026-05-04 14:13 | 40.79410 | -72.08274 | 36921 ft | 698 kts | 71° |
| 2026-05-04 14:13 | 40.80933 | -72.02123 | 37720 ft | 705 kts | 71° |
| 2026-05-04 14:14 | 40.82445 | -71.96002 | 38539 ft | 710 kts | 72° |
| 2026-05-04 14:14 | 40.85527 | -71.83474 | 39546 ft | 725 kts | 72° |
| 2026-05-04 14:14 | 40.87096 | -71.77069 | 39831 ft | 735 kts | 72° |
| 2026-05-04 14:15 | 40.90256 | -71.64115 | 40438 ft | 750 kts | 72° |
| 2026-05-04 14:15 | 40.93464 | -71.50896 | 41044 ft | 758 kts | 72° |
| 2026-05-04 14:16 | 40.96699 | -71.37483 | 41675 ft | 766 kts | 72° |
| 2026-05-04 14:16 | 40.98305 | -71.30798 | 42003 ft | 770 kts | 72° |
| 2026-05-04 14:17 | 41.01561 | -71.17182 | 42671 ft | 778 kts | 72° |
| 2026-05-04 14:17 | 41.03198 | -71.10307 | 43009 ft | 783 kts | 72° |
| 2026-05-04 14:17 | 41.06465 | -70.96523 | 43695 ft | 790 kts | 72° |
| 2026-05-04 14:18 | 41.08119 | -70.89511 | 44060 ft | 795 kts | 72° |
| 2026-05-04 14:18 | 41.11431 | -70.75410 | 44765 ft | 803 kts | 72° |
| 2026-05-04 14:19 | 41.14729 | -70.61277 | 45432 ft | 809 kts | 72° |
| 2026-05-04 14:19 | 41.16389 | -70.54130 | 45770 ft | 812 kts | 72° |
| 2026-05-04 14:19 | 41.18064 | -70.46898 | 46109 ft | 814 kts | 72° |
| 2026-05-04 14:19 | 41.19727 | -70.39692 | 46449 ft | 816 kts | 72° |
| 2026-05-04 14:20 | 41.21372 | -70.32543 | 46788 ft | 818 kts | 73° |
| 2026-05-04 14:20 | 41.23038 | -70.25276 | 47129 ft | 820 kts | 73° |
| 2026-05-04 14:20 | 41.24698 | -70.18016 | 47470 ft | 821 kts | 73° |
| 2026-05-04 14:21 | 41.28125 | -70.03476 | 48180 ft | 821 kts | 65° |
| 2026-05-04 14:21 | 41.30756 | -69.96745 | 48720 ft | 815 kts | 53° |
| 2026-05-04 14:21 | 41.34276 | -69.90873 | 49253 ft | 809 kts | 45° |
| 2026-05-04 14:21 | 41.38123 | -69.85545 | 49614 ft | 807 kts | 43° |
| 2026-05-04 14:22 | 41.42120 | -69.80255 | 49963 ft | 807 kts | 42° |
| 2026-05-04 14:22 | 41.46062 | -69.74910 | 50275 ft | 808 kts | 47° |
| 2026-05-04 14:22 | 41.49731 | -69.69290 | 50513 ft | 809 kts | 47° |
| 2026-05-04 14:22 | 41.53427 | -69.63576 | 50661 ft | 811 kts | 48° |
| 2026-05-04 14:23 | 41.60767 | -69.52067 | 49779 ft | 822 kts | 48° |
| 2026-05-04 14:23 | 41.64458 | -69.46267 | 49882 ft | 816 kts | 48° |
| 2026-05-04 14:23 | 41.68149 | -69.40463 | 50041 ft | 811 kts | 48° |
| 2026-05-04 14:24 | 41.71788 | -69.34732 | 50149 ft | 807 kts | 48° |
| 2026-05-04 14:24 | 41.75417 | -69.29007 | 50278 ft | 802 kts | 48° |
| 2026-05-04 14:24 | 41.79037 | -69.23284 | 50408 ft | 798 kts | 48° |
| 2026-05-04 14:24 | 41.82567 | -69.17694 | 50567 ft | 792 kts | 48° |
| 2026-05-04 14:25 | 41.86129 | -69.12042 | 50753 ft | 788 kts | 48° |
| 2026-05-04 14:25 | 41.93168 | -69.00844 | 50882 ft | 781 kts | 48° |
| 2026-05-04 14:25 | 41.96676 | -68.95246 | 50920 ft | 778 kts | 48° |
| 2026-05-04 14:26 | 42.03622 | -68.84132 | 50934 ft | 772 kts | 48° |
| 2026-05-04 14:26 | 42.10482 | -68.73115 | 50939 ft | 768 kts | 48° |
| 2026-05-04 14:27 | 42.17333 | -68.62073 | 50938 ft | 763 kts | 49° |
| 2026-05-04 14:27 | 42.24091 | -68.51139 | 50932 ft | 759 kts | 49° |
| 2026-05-04 14:28 | 42.30845 | -68.40172 | 50934 ft | 754 kts | 49° |
| 2026-05-04 14:28 | 42.37511 | -68.29307 | 50933 ft | 750 kts | 49° |
| 2026-05-04 14:29 | 42.50746 | -68.07618 | 50942 ft | 743 kts | 49° |
| 2026-05-04 14:30 | 42.57312 | -67.96800 | 50934 ft | 739 kts | 49° |
| 2026-05-04 14:31 | 42.67044 | -67.80691 | 50939 ft | 733 kts | 49° |
| 2026-05-04 14:32 | 42.79867 | -67.59330 | 50935 ft | 725 kts | 49° |
| 2026-05-04 14:32 | 42.86201 | -67.48721 | 50932 ft | 721 kts | 49° |
| 2026-05-04 14:33 | 42.92519 | -67.38101 | 50931 ft | 717 kts | 49° |
| 2026-05-04 14:33 | 42.98784 | -67.27532 | 50928 ft | 713 kts | 50° |
| 2026-05-04 14:34 | 43.05007 | -67.16997 | 50931 ft | 709 kts | 50° |
| 2026-05-04 14:34 | 43.11163 | -67.06538 | 50922 ft | 706 kts | 50° |